N42AB KDCA-KJYO
Flight info
| Callsign | N42AB |
|---|---|
| Flight time | 0h 16m |
| Altitude | 6000 |
| Route | HORTO4 HORTO |
| Aircraft | SF50/L-VGDW/C |
Departure
| Time | 2026-05-04 21:02 |
|---|---|
| Airport | Ronald Reagan Washington National Airport (KDCA) |
Arrival
| Time | 2026-05-04 21:19 |
|---|---|
| Airport | Leesburg Executive Airport (KJYO) |
| Time | Latitude | Longitude | Altitude | Speed | Heading |
|---|---|---|---|---|---|
| 2026-05-04 20:53 | 38.84500 | -77.04594 | 18 ft | 0 kts | 152° |
| 2026-05-04 20:57 | 38.84530 | -77.04598 | 18 ft | 16 kts | 22° |
| 2026-05-04 20:58 | 38.84611 | -77.04513 | 18 ft | 14 kts | 53° |
| 2026-05-04 20:58 | 38.84643 | -77.04418 | 18 ft | 11 kts | 126° |
| 2026-05-04 20:58 | 38.84584 | -77.04350 | 9 ft | 11 kts | 117° |
| 2026-05-04 20:58 | 38.84567 | -77.04237 | 18 ft | 22 kts | 78° |
| 2026-05-04 20:59 | 38.84624 | -77.04040 | 18 ft | 22 kts | 26° |
| 2026-05-04 20:59 | 38.84748 | -77.03964 | 18 ft | 18 kts | 26° |
| 2026-05-04 20:59 | 38.84885 | -77.03951 | 18 ft | 21 kts | 358° |
| 2026-05-04 20:59 | 38.85024 | -77.03965 | 18 ft | 20 kts | 355° |
| 2026-05-04 21:00 | 38.85183 | -77.03980 | 18 ft | 25 kts | 355° |
| 2026-05-04 21:00 | 38.85347 | -77.03997 | 18 ft | 22 kts | 355° |
| 2026-05-04 21:00 | 38.85492 | -77.04014 | 18 ft | 20 kts | 350° |
| 2026-05-04 21:00 | 38.85619 | -77.04041 | 18 ft | 18 kts | 354° |
| 2026-05-04 21:01 | 38.85725 | -77.03988 | 20 ft | 16 kts | 12° |
| 2026-05-04 21:01 | 38.85888 | -77.03990 | 18 ft | 24 kts | 358° |
| 2026-05-04 21:01 | 38.86035 | -77.03945 | 18 ft | 19 kts | 15° |
| 2026-05-04 21:01 | 38.86063 | -77.03868 | 17 ft | 12 kts | 171° |
| 2026-05-04 21:02 | 38.85879 | -77.03848 | 19 ft | 52 kts | 175° |
| 2026-05-04 21:02 | 38.85345 | -77.03796 | 34 ft | 99 kts | 176° |
| 2026-05-04 21:02 | 38.84609 | -77.03738 | 284 ft | 111 kts | 177° |
| 2026-05-04 21:02 | 38.83846 | -77.03708 | 769 ft | 103 kts | 178° |
| 2026-05-04 21:03 | 38.83184 | -77.03698 | 1233 ft | 89 kts | 184° |
| 2026-05-04 21:03 | 38.82531 | -77.03673 | 1630 ft | 91 kts | 185° |
| 2026-05-04 21:03 | 38.81897 | -77.03665 | 2013 ft | 94 kts | 185° |
| 2026-05-04 21:03 | 38.81229 | -77.03635 | 2347 ft | 101 kts | 184° |
| 2026-05-04 21:04 | 38.80483 | -77.03620 | 2634 ft | 114 kts | 184° |
| 2026-05-04 21:04 | 38.79640 | -77.03595 | 2915 ft | 127 kts | 184° |
| 2026-05-04 21:04 | 38.78708 | -77.03573 | 3209 ft | 142 kts | 182° |
| 2026-05-04 21:04 | 38.77675 | -77.03553 | 3469 ft | 155 kts | 184° |
| 2026-05-04 21:05 | 38.76599 | -77.03846 | 3741 ft | 164 kts | 206° |
| 2026-05-04 21:05 | 38.75634 | -77.04687 | 4004 ft | 174 kts | 224° |
| 2026-05-04 21:05 | 38.74958 | -77.06026 | 4243 ft | 186 kts | 246° |
| 2026-05-04 21:05 | 38.74733 | -77.07716 | 4509 ft | 199 kts | 264° |
| 2026-05-04 21:06 | 38.74650 | -77.09531 | 4777 ft | 209 kts | 263° |
| 2026-05-04 21:06 | 38.74541 | -77.11436 | 4961 ft | 220 kts | 263° |
| 2026-05-04 21:06 | 38.74422 | -77.13469 | 4979 ft | 236 kts | 263° |
| 2026-05-04 21:06 | 38.74295 | -77.15590 | 4977 ft | 246 kts | 263° |
| 2026-05-04 21:07 | 38.74152 | -77.17814 | 4966 ft | 254 kts | 263° |
| 2026-05-04 21:07 | 38.74182 | -77.20092 | 4958 ft | 258 kts | 276° |
| 2026-05-04 21:07 | 38.74661 | -77.22317 | 4953 ft | 262 kts | 288° |
| 2026-05-04 21:07 | 38.75561 | -77.24369 | 4956 ft | 267 kts | 302° |
| 2026-05-04 21:08 | 38.76846 | -77.26095 | 4951 ft | 271 kts | 316° |
| 2026-05-04 21:08 | 38.78460 | -77.27379 | 4962 ft | 276 kts | 332° |
| 2026-05-04 21:08 | 38.80258 | -77.28265 | 4967 ft | 276 kts | 336° |
| 2026-05-04 21:08 | 38.82052 | -77.29147 | 4961 ft | 276 kts | 335° |
| 2026-05-04 21:09 | 38.83840 | -77.30052 | 4963 ft | 276 kts | 335° |
| 2026-05-04 21:09 | 38.85613 | -77.30988 | 4982 ft | 275 kts | 332° |
| 2026-05-04 21:09 | 38.87351 | -77.32014 | 4983 ft | 276 kts | 332° |
| 2026-05-04 21:09 | 38.89096 | -77.33038 | 4978 ft | 275 kts | 332° |
| 2026-05-04 21:10 | 38.90841 | -77.34052 | 4977 ft | 276 kts | 332° |
| 2026-05-04 21:10 | 38.92473 | -77.34999 | 4978 ft | 275 kts | 332° |
| 2026-05-04 21:10 | 38.94215 | -77.36021 | 4983 ft | 275 kts | 332° |
| 2026-05-04 21:10 | 38.95956 | -77.37051 | 4983 ft | 274 kts | 332° |
| 2026-05-04 21:11 | 38.97691 | -77.38076 | 4980 ft | 276 kts | 332° |
| 2026-05-04 21:11 | 38.99360 | -77.39048 | 4979 ft | 275 kts | 332° |
| 2026-05-04 21:11 | 39.01107 | -77.40069 | 4985 ft | 275 kts | 332° |
| 2026-05-04 21:11 | 39.02846 | -77.41097 | 4983 ft | 275 kts | 332° |
| 2026-05-04 21:12 | 39.04084 | -77.41824 | 4992 ft | 274 kts | 332° |
| 2026-05-04 21:12 | 39.05822 | -77.42847 | 4987 ft | 275 kts | 332° |
| 2026-05-04 21:12 | 39.07567 | -77.43872 | 4987 ft | 274 kts | 332° |
| 2026-05-04 21:12 | 39.09280 | -77.44887 | 4984 ft | 274 kts | 332° |
| 2026-05-04 21:13 | 39.11042 | -77.45931 | 4982 ft | 276 kts | 332° |
| 2026-05-04 21:13 | 39.12325 | -77.46689 | 4990 ft | 274 kts | 330° |
| 2026-05-04 21:13 | 39.13728 | -77.48110 | 4970 ft | 266 kts | 304° |
| 2026-05-04 21:13 | 39.14470 | -77.50235 | 4967 ft | 259 kts | 278° |
| 2026-05-04 21:14 | 39.14328 | -77.52450 | 4972 ft | 253 kts | 250° |
| 2026-05-04 21:14 | 39.13768 | -77.53753 | 4963 ft | 253 kts | 231° |
| 2026-05-04 21:14 | 39.12793 | -77.54839 | 4948 ft | 236 kts | 216° |
| 2026-05-04 21:14 | 39.11582 | -77.56050 | 4550 ft | 210 kts | 219° |
| 2026-05-04 21:15 | 39.10525 | -77.57057 | 4631 ft | 172 kts | 230° |
| 2026-05-04 21:15 | 39.10114 | -77.58438 | 4335 ft | 169 kts | 265° |
| 2026-05-04 21:15 | 39.10225 | -77.59906 | 4158 ft | 162 kts | 277° |
| 2026-05-04 21:15 | 39.10634 | -77.61250 | 3942 ft | 162 kts | 295° |
| 2026-05-04 21:16 | 39.11340 | -77.62331 | 3765 ft | 160 kts | 313° |
| 2026-05-04 21:16 | 39.12302 | -77.63057 | 3619 ft | 161 kts | 338° |
| 2026-05-04 21:16 | 39.13445 | -77.62952 | 3366 ft | 178 kts | 22° |
| 2026-05-04 21:16 | 39.14314 | -77.61820 | 3074 ft | 182 kts | 68° |
| 2026-05-04 21:17 | 39.14506 | -77.60248 | 2770 ft | 174 kts | 102° |
| 2026-05-04 21:17 | 39.14052 | -77.58883 | 2480 ft | 163 kts | 135° |
| 2026-05-04 21:17 | 39.13173 | -77.58048 | 2154 ft | 152 kts | 165° |
| 2026-05-04 21:17 | 39.12193 | -77.57664 | 1803 ft | 142 kts | 168° |
| 2026-05-04 21:18 | 39.11358 | -77.57301 | 1409 ft | 114 kts | 166° |
| 2026-05-04 21:18 | 39.10652 | -77.56976 | 992 ft | 105 kts | 164° |
| 2026-05-04 21:18 | 39.09935 | -77.56669 | 743 ft | 108 kts | 163° |
| 2026-05-04 21:18 | 39.09261 | -77.56388 | 572 ft | 89 kts | 166° |
| 2026-05-04 21:19 | 39.08700 | -77.56138 | 429 ft | 82 kts | 168° |
| 2026-05-04 21:19 | 39.08180 | -77.55913 | 380 ft | 71 kts | 162° |
| 2026-05-04 21:19 | 39.07809 | -77.55755 | 387 ft | 44 kts | 160° |
| 2026-05-04 21:19 | 39.07694 | -77.55703 | 391 ft | 17 kts | 143° |
| 2026-05-04 21:20 | 39.07687 | -77.55585 | 390 ft | 11 kts | 98° |
| 2026-05-04 21:20 | 39.07663 | -77.55536 | 389 ft | 5 kts | 67° |
| 2026-05-04 21:20 | 39.07664 | -77.55534 | 389 ft | 0 kts | 67° |